Robstown, Nueces County Airport (KRBO)

NameNueces County Airport
CityRobstown
CountryUnited States
ICAOKRBO
IATA
Altitude24 m
CoordinatesGoogle Map
Live Air TrafficLiveATC.net
METARKRBO 072055Z AUTO 02004KT 10SM CLR 23/11 A3019 RMK AO2 T02320106
2019-12-07 20:55:00 Wind: North (20°) 2.06 m/s - Visibility: 16093.4 m - Temperature: 23 °C - Dew point: 11 °C - Humidity: 46.8% - Pressure: 1022.35 hPa
Statistics

The table below shows the detailed information of all flights to/from Robstown, Nueces County Airport (KRBO).